createdAt,value
2023-02-03T00:00:01.945Z,22.40
2023-02-03T00:02:39.312Z,22.40
2023-02-03T00:05:08.105Z,22.40
2023-02-03T00:07:38.647Z,22.40
2023-02-03T00:10:08.104Z,22.40
2023-02-03T00:12:36.068Z,22.40
2023-02-03T00:15:04.824Z,22.40
2023-02-03T00:17:32.731Z,22.40
2023-02-03T00:20:00.639Z,22.40
2023-02-03T00:22:28.365Z,22.40
2023-02-03T00:24:56.290Z,22.30
2023-02-03T00:27:24.281Z,22.40
2023-02-03T00:29:53.284Z,22.30
2023-02-03T00:32:21.332Z,22.30
2023-02-03T00:34:49.079Z,22.30
2023-02-03T00:37:17.009Z,22.30
2023-02-03T00:39:45.057Z,22.30
2023-02-03T00:42:12.782Z,22.30
2023-02-03T00:44:40.581Z,22.30
2023-02-03T00:47:08.743Z,22.30
2023-02-03T00:49:36.786Z,22.30
2023-02-03T00:52:05.039Z,22.30
2023-02-03T00:54:33.822Z,22.30
2023-02-03T00:57:01.772Z,22.30
2023-02-03T00:59:29.655Z,22.30
2023-02-03T01:01:57.537Z,22.30
2023-02-03T01:04:26.010Z,22.30
2023-02-03T01:06:57.653Z,22.30
2023-02-03T01:09:26.301Z,22.30
2023-02-03T01:11:55.412Z,22.20
2023-02-03T01:14:23.319Z,22.20
2023-02-03T01:16:51.360Z,22.30
2023-02-03T01:19:19.255Z,22.20
2023-02-03T01:21:47.267Z,22.30
2023-02-03T01:24:15.308Z,22.20
2023-02-03T01:26:43.724Z,22.20
2023-02-03T01:29:11.896Z,22.20
2023-02-03T01:31:42.493Z,22.20
2023-02-03T01:34:16.552Z,22.20
2023-02-03T01:36:46.956Z,22.20
2023-02-03T01:39:15.134Z,22.20
2023-02-03T01:41:43.331Z,22.20
2023-02-03T01:44:32.439Z,22.20
2023-02-03T01:47:00.501Z,22.20
2023-02-03T01:49:34.033Z,22.20
2023-02-03T01:52:02.769Z,22.20
2023-02-03T01:54:34.026Z,22.20
2023-02-03T01:57:05.791Z,22.20
2023-02-03T01:59:36.068Z,22.20
2023-02-03T02:02:05.879Z,22.20
2023-02-03T02:04:57.498Z,22.10
2023-02-03T02:07:26.063Z,22.20
2023-02-03T02:09:55.096Z,22.20
2023-02-03T02:12:23.076Z,22.20
2023-02-03T02:14:51.132Z,22.20
2023-02-03T02:17:52.287Z,22.20
2023-02-03T02:21:02.544Z,22.10
2023-02-03T02:24:09.355Z,22.20
2023-02-03T02:26:51.834Z,22.10
2023-02-03T02:29:38.478Z,22.10
2023-02-03T02:32:18.166Z,22.10
2023-02-03T02:34:57.980Z,22.10
2023-02-03T02:37:59.000Z,22.10
2023-02-03T02:40:38.089Z,22.20
2023-02-03T02:43:13.951Z,22.10
2023-02-03T02:45:50.398Z,22.10
2023-02-03T02:48:26.799Z,22.10
2023-02-03T02:50:57.924Z,22.20
2023-02-03T02:53:32.522Z,22.10
2023-02-03T02:56:03.938Z,22.10
2023-02-03T02:58:34.905Z,22.10
2023-02-03T03:01:04.070Z,22.10
2023-02-03T03:03:31.974Z,22.20
2023-02-03T03:06:08.237Z,22.20
2023-02-03T03:08:45.138Z,22.20
2023-02-03T03:11:13.436Z,22.10
2023-02-03T03:13:52.457Z,22.20
2023-02-03T03:16:25.008Z,22.20
2023-02-03T03:19:00.780Z,22.10
2023-02-03T03:21:35.039Z,22.10
2023-02-03T03:24:08.395Z,22.20
2023-02-03T03:26:45.621Z,22.10
2023-02-03T03:29:24.997Z,22.10
2023-02-03T03:31:53.591Z,22.10
2023-02-03T03:34:21.728Z,22.20
2023-02-03T03:36:58.839Z,22.20
2023-02-03T03:39:35.294Z,22.20
2023-02-03T03:42:14.110Z,22.10
2023-02-03T03:44:57.805Z,22.20
2023-02-03T03:47:40.076Z,22.10
2023-02-03T03:50:11.720Z,22.10
2023-02-03T03:52:41.038Z,22.10
2023-02-03T03:55:11.819Z,22.10
2023-02-03T03:57:57.273Z,22.10
2023-02-03T04:00:28.193Z,22.10
2023-02-03T04:02:58.593Z,22.10
2023-02-03T04:05:27.137Z,22.10
2023-02-03T04:07:55.660Z,22.10
2023-02-03T04:10:32.556Z,22.10
2023-02-03T04:13:01.917Z,22.10
2023-02-03T04:15:31.007Z,22.10
2023-02-03T04:18:01.532Z,22.10
2023-02-03T04:20:30.860Z,22.00
2023-02-03T04:22:59.640Z,22.00
2023-02-03T04:25:27.838Z,22.00
2023-02-03T04:27:56.832Z,22.00
2023-02-03T04:30:25.580Z,22.00
2023-02-03T04:32:54.561Z,21.90
2023-02-03T04:35:22.827Z,21.90
2023-02-03T04:37:51.311Z,22.00
2023-02-03T04:40:19.756Z,22.00
2023-02-03T04:42:47.995Z,22.00
2023-02-03T04:45:16.624Z,21.90
2023-02-03T04:47:45.259Z,21.90
2023-02-03T04:50:13.206Z,22.00
2023-02-03T04:52:41.092Z,21.90
2023-02-03T04:55:09.825Z,21.90
2023-02-03T04:57:38.418Z,21.90
2023-02-03T05:00:07.432Z,21.90
2023-02-03T05:02:35.983Z,21.90
2023-02-03T05:05:04.514Z,21.80
2023-02-03T05:07:32.906Z,21.90
2023-02-03T05:10:01.407Z,22.00
2023-02-03T05:12:29.801Z,22.00
2023-02-03T05:14:58.385Z,22.00
2023-02-03T05:17:26.788Z,21.70
2023-02-03T05:19:55.477Z,21.50
2023-02-03T05:22:24.138Z,21.40
2023-02-03T05:24:52.772Z,21.40
2023-02-03T05:27:21.141Z,21.30
2023-02-03T05:29:49.439Z,21.30
2023-02-03T05:32:18.064Z,20.80
2023-02-03T05:34:46.629Z,20.50
2023-02-03T05:37:14.716Z,20.20
2023-02-03T05:39:43.265Z,20.30
2023-02-03T05:42:11.620Z,20.10
2023-02-03T05:44:40.087Z,20.20
2023-02-03T05:47:09.053Z,20.80
2023-02-03T05:49:37.451Z,21.30
2023-02-03T05:52:05.650Z,21.70
2023-02-03T05:54:34.312Z,21.90
2023-02-03T05:57:02.806Z,22.10
2023-02-03T05:59:31.410Z,22.30
2023-02-03T06:01:59.647Z,22.40
2023-02-03T06:04:28.205Z,22.50
2023-02-03T06:06:56.563Z,22.70
2023-02-03T06:09:25.118Z,22.80
2023-02-03T06:11:53.540Z,22.80
2023-02-03T06:14:21.940Z,22.90
2023-02-03T06:16:50.533Z,23.00
2023-02-03T06:19:19.133Z,23.10
2023-02-03T06:21:47.517Z,23.20
2023-02-03T06:24:16.191Z,23.20
2023-02-03T06:26:44.696Z,23.30
2023-02-03T06:29:12.820Z,23.30
2023-02-03T06:31:41.311Z,23.40
2023-02-03T06:34:10.091Z,23.50
2023-02-03T06:36:38.764Z,23.50
2023-02-03T06:39:07.250Z,23.60
2023-02-03T06:41:35.578Z,23.70
2023-02-03T06:44:04.334Z,23.70
2023-02-03T06:46:34.355Z,23.80
2023-02-03T06:49:02.848Z,23.80
2023-02-03T06:51:31.335Z,23.80
2023-02-03T06:54:00.153Z,23.90
2023-02-03T06:56:28.921Z,24.00
2023-02-03T06:58:59.091Z,24.00
2023-02-03T07:01:27.861Z,24.10
2023-02-03T07:03:59.205Z,24.10
2023-02-03T07:06:30.329Z,24.10
2023-02-03T07:09:01.852Z,24.10
2023-02-03T07:11:30.900Z,24.00
2023-02-03T07:13:59.525Z,24.10
2023-02-03T07:16:28.204Z,24.10
2023-02-03T07:18:56.835Z,24.10
2023-02-03T07:21:25.133Z,24.10
2023-02-03T07:23:53.783Z,24.10
2023-02-03T07:26:23.525Z,24.20
2023-02-03T07:28:52.920Z,24.20
2023-02-03T07:31:21.646Z,24.30
2023-02-03T07:33:50.443Z,24.30
2023-02-03T07:36:18.731Z,24.30
2023-02-03T07:38:47.213Z,24.40
2023-02-03T07:41:17.686Z,24.40
2023-02-03T07:43:46.812Z,24.30
2023-02-03T07:46:15.156Z,24.30
2023-02-03T07:48:43.246Z,24.20
2023-02-03T07:51:11.317Z,24.10
2023-02-03T07:53:39.850Z,23.90
2023-02-03T07:56:08.250Z,23.80
2023-02-03T08:07:38.280Z,24.00
2023-02-03T08:10:07.636Z,24.20
2023-02-03T08:12:36.194Z,24.30
2023-02-03T08:15:05.513Z,24.40
2023-02-03T08:17:34.138Z,24.40
2023-02-03T08:20:03.178Z,24.50
2023-02-03T08:22:31.492Z,24.40
2023-02-03T08:25:00.076Z,24.30
2023-02-03T08:27:28.899Z,24.20
2023-02-03T08:29:57.637Z,24.10
2023-02-03T08:32:26.225Z,24.00
2023-02-03T09:06:28.112Z,24.30
2023-02-03T09:08:56.758Z,24.10
2023-02-03T09:11:25.444Z,24.10
2023-02-03T09:13:53.842Z,24.00
2023-02-03T09:16:22.344Z,24.00
2023-02-03T09:18:51.343Z,24.00
2023-02-03T09:21:31.981Z,23.90
2023-02-03T09:24:04.284Z,23.90
2023-02-03T09:26:32.686Z,24.00
2023-02-03T09:29:00.848Z,24.10
2023-02-03T09:31:28.854Z,24.30
2023-02-03T09:33:57.160Z,24.40
2023-02-03T09:36:25.724Z,24.50
2023-02-03T09:38:54.200Z,24.60
2023-02-03T09:41:37.249Z,24.60
2023-02-03T09:44:26.688Z,24.50
2023-02-03T09:46:59.486Z,24.40
2023-02-03T09:49:44.362Z,24.30
2023-02-03T09:52:19.824Z,24.20
2023-02-03T09:55:01.929Z,24.20
2023-02-03T09:57:40.956Z,24.10
2023-02-03T10:00:36.791Z,24.00
2023-02-03T10:03:28.145Z,24.00
2023-02-03T10:06:14.544Z,23.90
2023-02-03T10:08:55.987Z,23.90
2023-02-03T10:11:39.301Z,23.80
2023-02-03T10:14:22.499Z,23.90
2023-02-03T10:17:19.464Z,24.20
2023-02-03T10:20:03.090Z,24.30
2023-02-03T10:22:35.305Z,24.40
2023-02-03T10:25:11.486Z,24.50
2023-02-03T10:27:40.389Z,24.50
2023-02-03T10:30:49.983Z,24.50
2023-02-03T10:33:19.588Z,24.40
2023-02-03T10:36:00.313Z,24.30
2023-02-03T10:38:57.282Z,24.20
2023-02-03T10:41:26.283Z,24.20
2023-02-03T10:43:57.587Z,24.10
2023-02-03T10:46:31.066Z,24.10
2023-02-03T10:48:59.729Z,24.00
2023-02-03T10:51:35.309Z,24.00
2023-02-03T10:54:03.789Z,24.00
2023-02-03T10:56:37.701Z,23.90
2023-02-03T10:59:07.799Z,23.90
2023-02-03T11:01:48.304Z,23.90
2023-02-03T11:04:29.055Z,23.90
2023-02-03T11:07:09.195Z,23.80
2023-02-03T11:09:40.119Z,23.80
2023-02-03T11:12:14.493Z,23.80
2023-02-03T11:14:45.468Z,23.80
2023-02-03T11:17:29.785Z,23.80
2023-02-03T11:20:13.177Z,23.80
2023-02-03T11:22:44.115Z,23.70
2023-02-03T11:25:28.107Z,23.70
2023-02-03T11:27:56.466Z,23.70
2023-02-03T11:30:30.515Z,23.70
2023-02-03T11:33:02.644Z,23.70
2023-02-03T11:35:32.152Z,23.60
2023-02-03T11:38:02.373Z,23.50
2023-02-03T11:40:32.904Z,23.50
2023-02-03T11:43:23.039Z,23.50
2023-02-03T11:45:53.547Z,23.50
2023-02-03T11:48:31.177Z,23.40
2023-02-03T11:51:24.435Z,23.40
2023-02-03T11:54:39.054Z,23.40
2023-02-03T11:57:30.802Z,23.30
2023-02-03T12:00:13.515Z,23.30
2023-02-03T12:02:56.632Z,23.30
2023-02-03T12:05:37.180Z,23.30
2023-02-03T12:08:29.905Z,23.30
2023-02-03T12:11:04.404Z,23.30
2023-02-03T12:13:36.241Z,23.30
2023-02-03T12:16:07.897Z,23.20
2023-02-03T12:18:57.271Z,23.20
2023-02-03T12:21:36.799Z,23.20
2023-02-03T12:24:10.763Z,23.20
2023-02-03T12:27:01.356Z,23.20
2023-02-03T12:29:43.655Z,23.20
2023-02-03T12:32:20.305Z,23.10
2023-02-03T12:35:02.084Z,23.20
2023-02-03T12:38:04.398Z,23.10
2023-02-03T12:40:53.705Z,23.10
2023-02-03T12:43:37.893Z,23.20
2023-02-03T12:46:29.416Z,23.20
2023-02-03T12:49:04.695Z,23.20
2023-02-03T12:51:40.306Z,23.20
2023-02-03T12:54:31.759Z,23.20
2023-02-03T12:57:12.120Z,23.20
2023-02-03T12:59:42.531Z,23.10
2023-02-03T13:02:29.179Z,23.10
2023-02-03T13:05:08.811Z,23.10
2023-02-03T13:07:47.793Z,23.10
2023-02-03T13:10:49.070Z,23.00
2023-02-03T13:13:26.577Z,23.10
2023-02-03T13:15:57.678Z,23.00
2023-02-03T13:18:44.356Z,23.00
2023-02-03T13:21:13.228Z,23.00
2023-02-03T13:23:45.032Z,23.00
2023-02-03T13:26:19.698Z,22.90
2023-02-03T13:29:12.948Z,22.90
2023-02-03T13:31:55.179Z,22.90
2023-02-03T13:34:39.366Z,22.90
2023-02-03T13:37:55.659Z,22.90
2023-02-03T13:40:54.351Z,22.90
2023-02-03T13:43:38.695Z,22.80
2023-02-03T13:46:19.564Z,22.80
2023-02-03T13:48:48.427Z,22.80
2023-02-03T13:51:30.195Z,22.80
2023-02-03T13:54:14.977Z,22.80
2023-02-03T13:56:52.960Z,22.80
2023-02-03T13:59:39.212Z,22.80
2023-02-03T14:02:40.961Z,22.80
2023-02-03T14:05:39.113Z,22.80
2023-02-03T14:08:28.287Z,22.80
2023-02-03T14:11:33.865Z,22.80
2023-02-03T14:14:08.020Z,22.80
2023-02-03T14:16:41.486Z,22.80
2023-02-03T14:19:13.603Z,22.70
2023-02-03T14:21:50.108Z,22.80
2023-02-03T14:24:20.090Z,22.80
2023-02-03T14:26:54.410Z,22.80
2023-02-03T14:29:35.424Z,22.70
2023-02-03T14:32:06.680Z,22.70
2023-02-03T14:34:55.397Z,22.70
2023-02-03T14:37:26.966Z,22.70
2023-02-03T14:40:34.473Z,22.70
2023-02-03T14:43:21.874Z,22.70
2023-02-03T14:46:23.371Z,22.70
2023-02-03T14:49:07.732Z,22.60
2023-02-03T14:52:03.859Z,22.60
2023-02-03T14:54:51.023Z,22.60
2023-02-03T14:57:33.073Z,22.60
2023-02-03T15:00:06.711Z,22.60
2023-02-03T15:02:36.558Z,22.70
2023-02-03T15:05:14.114Z,22.70
2023-02-03T15:07:46.384Z,22.70
2023-02-03T15:10:22.192Z,22.70
2023-02-03T15:12:59.199Z,22.60
2023-02-03T15:15:30.790Z,22.60
2023-02-03T15:18:19.546Z,22.70
2023-02-03T15:20:53.355Z,22.60
2023-02-03T15:23:27.211Z,22.60
2023-02-03T15:26:02.311Z,22.60
2023-02-03T15:28:31.386Z,22.60
2023-02-03T15:31:10.070Z,22.60
2023-02-03T15:33:39.925Z,22.60
2023-02-03T15:36:34.332Z,22.60
2023-02-03T15:39:38.786Z,22.60
2023-02-03T15:42:14.866Z,22.60
2023-02-03T15:44:52.950Z,22.60
2023-02-03T15:47:31.256Z,22.60
2023-02-03T15:50:28.968Z,22.60
2023-02-03T15:53:01.869Z,22.60
2023-02-03T15:56:04.185Z,22.60
2023-02-03T15:58:45.145Z,22.60
2023-02-03T16:01:18.058Z,22.50
2023-02-03T16:03:53.246Z,22.50
2023-02-03T16:06:36.265Z,22.50
2023-02-03T16:09:07.510Z,22.50
2023-02-03T16:11:40.369Z,22.50
2023-02-03T16:14:11.968Z,22.60
2023-02-03T16:17:04.363Z,22.60
2023-02-03T16:19:38.647Z,22.70
2023-02-03T16:22:28.842Z,22.70
2023-02-03T16:24:58.747Z,22.70
2023-02-03T16:27:27.828Z,22.70
2023-02-03T16:30:26.474Z,22.70
2023-02-03T16:33:29.369Z,22.70
2023-02-03T16:36:19.597Z,22.80
2023-02-03T16:39:07.993Z,22.80
2023-02-03T16:41:56.755Z,22.70
2023-02-03T16:44:43.893Z,22.80
2023-02-03T16:47:48.854Z,22.70
2023-02-03T16:50:44.529Z,22.70
2023-02-03T16:53:21.851Z,22.80
2023-02-03T16:55:53.906Z,22.70
2023-02-03T16:58:22.946Z,22.80
2023-02-03T17:00:53.786Z,22.80
2023-02-03T17:03:24.601Z,22.80
2023-02-03T17:05:53.373Z,22.80
2023-02-03T17:08:26.176Z,22.70
2023-02-03T17:10:54.671Z,22.80
2023-02-03T17:13:24.844Z,22.80
2023-02-03T17:15:53.480Z,22.70
2023-02-03T17:18:22.368Z,22.70
2023-02-03T17:20:50.876Z,22.80
2023-02-03T17:23:19.317Z,22.70
2023-02-03T17:25:49.897Z,22.70
2023-02-03T17:28:19.699Z,22.70
2023-02-03T17:30:59.953Z,22.70
2023-02-03T17:33:29.792Z,22.70
2023-02-03T17:36:04.470Z,22.70
2023-02-03T17:55:20.932Z,22.70
2023-02-03T17:57:49.582Z,22.70
2023-02-03T18:00:18.449Z,22.70
2023-02-03T18:02:51.434Z,22.70
2023-02-03T18:05:20.136Z,22.60
2023-02-03T18:10:22.455Z,22.60
2023-02-03T18:12:51.192Z,22.60
2023-02-03T18:15:19.509Z,22.60
2023-02-03T18:17:47.925Z,22.70
2023-02-03T18:20:16.620Z,22.60
2023-02-03T18:22:45.515Z,22.60
2023-02-03T18:25:17.354Z,22.60
2023-02-03T18:27:45.808Z,22.60
2023-02-03T18:30:15.393Z,22.60
2023-02-03T18:32:44.390Z,22.60
2023-02-03T18:35:17.076Z,22.50
2023-02-03T18:37:46.177Z,22.50
2023-02-03T18:40:14.848Z,22.50
2023-02-03T18:42:42.919Z,22.50
2023-02-03T18:45:12.494Z,22.50
2023-02-03T18:47:41.396Z,22.50
2023-02-03T18:50:10.300Z,22.50
2023-02-03T18:52:40.040Z,22.50
2023-02-03T18:55:09.687Z,22.50
2023-02-03T18:57:38.126Z,22.50
2023-02-03T19:00:07.688Z,22.50
2023-02-03T19:02:36.425Z,22.50
2023-02-03T19:05:05.679Z,22.50
2023-02-03T19:07:34.285Z,22.50
2023-02-03T19:10:02.495Z,22.40
2023-02-03T19:12:30.858Z,22.40
2023-02-03T19:14:59.481Z,22.50
2023-02-03T19:17:27.789Z,22.40
2023-02-03T19:19:56.426Z,22.40
2023-02-03T19:22:24.885Z,22.40
2023-02-03T19:24:53.388Z,22.40
2023-02-03T19:27:22.040Z,22.40
2023-02-03T19:29:50.626Z,22.40
2023-02-03T19:32:19.506Z,22.40
2023-02-03T19:34:47.950Z,22.40
2023-02-03T19:37:16.481Z,22.40
2023-02-03T19:39:48.002Z,22.40
2023-02-03T19:42:16.817Z,22.40
2023-02-03T19:44:45.180Z,22.30
2023-02-03T19:47:13.894Z,22.40
2023-02-03T19:49:42.105Z,22.40
2023-02-03T19:52:10.849Z,22.40
2023-02-03T19:54:39.382Z,22.40
2023-02-03T19:57:07.780Z,22.40
2023-02-03T19:59:36.145Z,22.30
2023-02-03T20:02:13.812Z,22.30
2023-02-03T20:04:44.409Z,22.30
2023-02-03T20:07:14.145Z,22.30
2023-02-03T20:09:42.779Z,22.30
2023-02-03T20:12:11.619Z,22.30
2023-02-03T20:14:40.250Z,22.30
2023-02-03T20:17:08.774Z,22.30
2023-02-03T20:19:37.293Z,22.30
2023-02-03T20:22:05.678Z,22.30
2023-02-03T20:24:34.358Z,22.30
2023-02-03T20:27:02.906Z,22.30
2023-02-03T20:29:31.387Z,22.30
2023-02-03T20:32:00.123Z,22.30
2023-02-03T20:34:28.788Z,22.30
2023-02-03T20:36:58.936Z,22.30
2023-02-03T20:39:28.227Z,22.20
2023-02-03T20:41:56.286Z,22.30
2023-02-03T20:44:24.428Z,22.30
2023-02-03T20:46:53.438Z,22.30
2023-02-03T20:49:21.968Z,22.30
2023-02-03T20:51:50.572Z,22.30
2023-02-03T20:54:21.949Z,22.20
2023-02-03T20:56:50.423Z,22.30
2023-02-03T20:59:20.424Z,22.20
2023-02-03T21:01:50.803Z,22.20
2023-02-03T21:04:38.474Z,22.20
2023-02-03T21:07:16.036Z,22.20
2023-02-03T21:09:44.006Z,22.20
2023-02-03T21:12:13.720Z,22.20
2023-02-03T21:14:44.045Z,22.20
2023-02-03T21:17:18.433Z,22.20
2023-02-03T21:19:47.411Z,22.20
2023-02-03T21:22:20.354Z,22.20
2023-02-03T21:25:00.406Z,22.20
2023-02-03T21:27:34.261Z,22.20
2023-02-03T21:30:22.324Z,22.20
2023-02-03T21:32:50.906Z,22.20
2023-02-03T21:35:29.695Z,22.20
2023-02-03T21:38:02.993Z,22.20
2023-02-03T21:40:34.033Z,22.20
2023-02-03T21:43:03.588Z,22.20
2023-02-03T21:45:39.444Z,22.20
2023-02-03T21:48:31.231Z,22.20
2023-02-03T21:51:16.049Z,22.20
2023-02-03T21:53:56.923Z,22.20
2023-02-03T21:56:38.712Z,22.20
2023-02-03T21:59:16.991Z,22.20
2023-02-03T22:01:44.747Z,22.20
2023-02-03T22:04:13.176Z,22.20
2023-02-03T22:06:41.300Z,22.10
2023-02-03T22:09:13.457Z,22.20
2023-02-03T22:11:41.834Z,22.10
2023-02-03T22:14:09.831Z,22.20
2023-02-03T22:16:37.711Z,22.20
2023-02-03T22:19:06.690Z,22.10
2023-02-03T22:21:35.584Z,22.10
2023-02-03T22:24:04.128Z,22.10
2023-02-03T22:26:32.350Z,22.10
2023-02-03T22:29:01.100Z,22.10
2023-02-03T22:31:29.800Z,22.10
2023-02-03T22:33:59.041Z,22.10
2023-02-03T22:36:27.316Z,22.10
2023-02-03T22:38:55.122Z,22.10
2023-02-03T22:41:22.970Z,22.10
2023-02-03T22:43:50.832Z,22.10
2023-02-03T22:46:18.915Z,22.10
2023-02-03T22:48:46.769Z,22.10
2023-02-03T22:51:14.640Z,22.10
2023-02-03T22:53:42.608Z,22.10
2023-02-03T22:56:10.619Z,22.10
2023-02-03T22:58:38.500Z,22.10
2023-02-03T23:01:06.450Z,22.10
2023-02-03T23:03:34.334Z,22.10
2023-02-03T23:06:02.064Z,22.10
2023-02-03T23:08:29.980Z,22.10
2023-02-03T23:10:58.834Z,22.10
2023-02-03T23:13:26.867Z,22.10
2023-02-03T23:15:54.797Z,22.10
2023-02-03T23:18:22.863Z,22.10
2023-02-03T23:20:50.801Z,22.10
2023-02-03T23:23:18.645Z,22.10
2023-02-03T23:25:46.601Z,22.10
2023-02-03T23:28:14.449Z,22.10
2023-02-03T23:30:42.285Z,22.10
2023-02-03T23:33:10.177Z,22.10
2023-02-03T23:35:46.924Z,22.00
2023-02-03T23:38:16.246Z,22.10
2023-02-03T23:40:44.425Z,22.10
2023-02-03T23:43:12.351Z,22.10
2023-02-03T23:45:40.494Z,22.10
2023-02-03T23:48:08.520Z,22.10
2023-02-03T23:50:37.078Z,22.10
2023-02-03T23:53:05.427Z,22.10
2023-02-03T23:55:33.376Z,22.10
2023-02-03T23:58:01.133Z,22.10
